createdAt,value
2023-02-14T00:01:12.354Z,3.90
2023-02-14T00:06:15.980Z,3.90
2023-02-14T00:11:18.928Z,3.80
2023-02-14T00:16:21.939Z,3.80
2023-02-14T00:21:24.939Z,3.80
2023-02-14T00:26:28.431Z,3.80
2023-02-14T00:31:31.661Z,3.90
2023-02-14T00:36:35.846Z,4.00
2023-02-14T00:41:40.164Z,4.10
2023-02-14T00:46:44.302Z,4.10
2023-02-14T00:51:47.293Z,4.00
2023-02-14T00:56:50.299Z,4.00
2023-02-14T01:01:53.326Z,4.00
2023-02-14T01:06:56.305Z,4.00
2023-02-14T01:11:59.073Z,4.00
2023-02-14T01:17:02.043Z,4.00
2023-02-14T01:22:05.055Z,3.90
2023-02-14T01:27:07.809Z,3.80
2023-02-14T01:32:10.861Z,3.80
2023-02-14T01:37:14.447Z,3.80
2023-02-14T01:42:17.458Z,3.80
2023-02-14T01:47:20.346Z,3.80
2023-02-14T01:52:41.479Z,3.70
2023-02-14T01:57:54.647Z,3.60
2023-02-14T02:03:00.095Z,3.50
2023-02-14T02:08:03.401Z,3.30
2023-02-14T02:13:09.505Z,3.00
2023-02-14T02:18:46.351Z,2.80
2023-02-14T02:24:48.744Z,2.50
2023-02-14T02:30:12.741Z,2.30
2023-02-14T02:35:46.123Z,2.10
2023-02-14T02:41:08.708Z,2.00
2023-02-14T02:46:48.417Z,1.90
2023-02-14T02:52:15.701Z,2.00
2023-02-14T02:57:28.404Z,2.10
2023-02-14T03:02:58.547Z,2.10
2023-02-14T03:08:01.535Z,2.00
2023-02-14T03:13:32.115Z,1.90
2023-02-14T03:19:13.060Z,1.70
2023-02-14T03:24:52.561Z,1.80
2023-02-14T03:30:13.544Z,2.00
2023-02-14T03:35:47.305Z,2.00
2023-02-14T03:40:58.936Z,2.10
2023-02-14T03:46:14.928Z,2.00
2023-02-14T03:51:21.288Z,1.90
2023-02-14T03:56:45.623Z,1.90
2023-02-14T04:02:15.562Z,1.70
2023-02-14T04:07:23.144Z,1.60
2023-02-14T04:12:37.196Z,1.50
2023-02-14T04:17:59.448Z,1.30
2023-02-14T04:23:03.666Z,1.20
2023-02-14T04:28:06.516Z,1.10
2023-02-14T04:33:10.727Z,0.90
2023-02-14T04:38:13.825Z,0.90
2023-02-14T04:43:16.960Z,0.80
2023-02-14T04:48:19.899Z,0.70
2023-02-14T04:53:23.316Z,0.60
2023-02-14T04:58:26.395Z,0.50
2023-02-14T05:03:29.174Z,0.40
2023-02-14T05:08:32.121Z,0.40
2023-02-14T05:13:34.903Z,0.30
2023-02-14T05:18:37.940Z,0.20
2023-02-14T05:23:41.390Z,0.20
2023-02-14T05:28:44.463Z,0.10
2023-02-14T05:33:47.368Z,0.10
2023-02-14T05:38:50.402Z,0.00
2023-02-14T05:43:53.485Z,0.00
2023-02-14T05:48:56.617Z,-0.10
2023-02-14T05:54:01.159Z,-0.10
2023-02-14T05:59:04.570Z,-0.10
2023-02-14T06:04:07.646Z,-0.10
2023-02-14T06:09:10.679Z,-0.20
2023-02-14T06:14:13.621Z,-0.20
2023-02-14T06:19:16.451Z,-0.20
2023-02-14T06:24:19.250Z,-0.10
2023-02-14T06:29:22.917Z,0.00
2023-02-14T06:34:25.728Z,0.10
2023-02-14T06:39:28.512Z,0.20
2023-02-14T06:44:31.700Z,0.40
2023-02-14T06:49:34.922Z,0.50
2023-02-14T06:54:37.878Z,0.60
2023-02-14T06:59:40.771Z,0.70
2023-02-14T07:04:43.528Z,0.80
2023-02-14T07:09:46.554Z,0.90
2023-02-14T07:14:49.525Z,1.10
2023-02-14T07:19:52.703Z,1.40
2023-02-14T07:24:56.049Z,1.60
2023-02-14T07:29:59.190Z,1.90
2023-02-14T07:35:02.127Z,2.20
2023-02-14T07:40:14.324Z,2.60
2023-02-14T07:45:22.193Z,3.20
2023-02-14T07:50:25.369Z,4.00
2023-02-14T07:55:28.378Z,4.90
2023-02-14T08:00:31.962Z,5.60
2023-02-14T08:05:36.090Z,6.10
2023-02-14T08:10:39.021Z,6.70
2023-02-14T08:16:00.227Z,7.20
2023-02-14T08:21:04.782Z,7.40
2023-02-14T08:26:07.947Z,7.70
2023-02-14T08:31:11.745Z,8.10
2023-02-14T08:36:14.882Z,8.40
2023-02-14T08:41:18.875Z,8.70
2023-02-14T08:46:21.885Z,8.90
2023-02-14T08:51:26.096Z,9.10
2023-02-14T08:56:29.158Z,9.20
2023-02-14T09:01:32.264Z,9.40
2023-02-14T09:06:39.210Z,9.70
2023-02-14T09:11:42.232Z,10.20
2023-02-14T09:16:45.229Z,10.50
2023-02-14T09:21:48.272Z,11.00
2023-02-14T09:26:52.074Z,11.00
2023-02-14T09:31:57.222Z,11.10
2023-02-14T09:37:00.209Z,11.50
2023-02-14T09:42:15.074Z,11.90
2023-02-14T09:47:34.169Z,12.30
2023-02-14T09:52:37.125Z,12.40
2023-02-14T09:58:17.676Z,12.50
2023-02-14T10:03:35.277Z,12.80
2023-02-14T10:08:44.129Z,13.20
2023-02-14T10:14:12.847Z,13.60
2023-02-14T10:19:26.263Z,13.00
2023-02-14T10:24:40.367Z,12.70
2023-02-14T10:29:43.485Z,13.00
2023-02-14T10:34:51.787Z,13.50
2023-02-14T10:40:26.815Z,13.80
2023-02-14T10:46:18.306Z,14.10
2023-02-14T10:51:44.692Z,14.30
2023-02-14T10:57:01.119Z,14.80
2023-02-14T11:02:06.172Z,15.20
2023-02-14T11:07:19.687Z,15.30
2023-02-14T11:12:39.708Z,15.40
2023-02-14T11:17:43.267Z,15.60
2023-02-14T11:22:46.636Z,15.70
2023-02-14T11:28:16.049Z,15.60
2023-02-14T11:33:37.995Z,15.50
2023-02-14T11:38:44.017Z,15.50
2023-02-14T11:43:52.254Z,15.40
2023-02-14T11:49:00.320Z,15.50
2023-02-14T11:54:09.961Z,15.30
2023-02-14T11:59:26.735Z,14.90
2023-02-14T12:04:46.611Z,14.40
2023-02-14T12:10:31.953Z,13.70
2023-02-14T12:15:44.678Z,13.00
2023-02-14T12:20:53.446Z,12.30
2023-02-14T12:26:10.850Z,11.80
2023-02-14T12:31:14.774Z,11.40
2023-02-14T12:36:41.126Z,11.10
2023-02-14T12:42:04.865Z,10.90
2023-02-14T12:47:46.734Z,10.80
2023-02-14T12:52:55.585Z,10.60
2023-02-14T12:58:24.621Z,10.70
2023-02-14T13:03:57.705Z,10.70
2023-02-14T13:09:25.307Z,10.60
2023-02-14T13:15:03.582Z,10.50
2023-02-14T13:20:40.361Z,10.40
2023-02-14T13:25:59.565Z,10.30
2023-02-14T13:31:03.759Z,10.30
2023-02-14T13:36:11.066Z,10.20
2023-02-14T13:41:16.503Z,10.20
2023-02-14T13:46:35.203Z,10.20
2023-02-14T13:51:54.312Z,10.00
2023-02-14T13:57:09.376Z,9.90
2023-02-14T14:02:43.352Z,9.70
2023-02-14T14:07:46.824Z,9.60
2023-02-14T14:12:52.093Z,9.60
2023-02-14T14:18:13.372Z,9.60
2023-02-14T14:23:37.242Z,9.60
2023-02-14T14:28:40.235Z,9.70
2023-02-14T14:33:43.242Z,9.70
2023-02-14T14:38:51.078Z,9.70
2023-02-14T14:43:55.300Z,9.70
2023-02-14T14:48:58.859Z,9.70
2023-02-14T14:54:13.817Z,9.70
2023-02-14T14:59:25.496Z,9.60
2023-02-14T15:04:35.337Z,9.50
2023-02-14T15:09:40.148Z,9.40
2023-02-14T15:14:51.339Z,9.30
2023-02-14T15:20:03.948Z,9.20
2023-02-14T15:25:35.943Z,9.10
2023-02-14T15:30:40.858Z,8.90
2023-02-14T15:35:44.106Z,8.60
2023-02-14T15:40:47.112Z,8.40
2023-02-14T15:45:56.573Z,8.20
2023-02-14T15:51:02.369Z,8.00
2023-02-14T15:56:29.405Z,7.80
2023-02-14T16:01:35.916Z,7.60
2023-02-14T16:06:44.834Z,7.40
2023-02-14T16:11:48.741Z,7.20
2023-02-14T16:17:00.932Z,7.00
2023-02-14T16:22:04.964Z,6.80
2023-02-14T16:27:08.898Z,6.60
2023-02-14T16:32:24.637Z,6.50
2023-02-14T16:37:33.426Z,6.30
2023-02-14T16:42:38.839Z,6.20
2023-02-14T16:47:41.745Z,6.10
2023-02-14T16:52:47.716Z,5.90
2023-02-14T16:57:51.900Z,5.80
2023-02-14T17:03:06.377Z,5.70
2023-02-14T17:08:13.279Z,5.70
2023-02-14T17:13:24.063Z,5.60
2023-02-14T17:18:28.128Z,5.50
2023-02-14T17:23:31.321Z,5.30
2023-02-14T17:28:34.373Z,5.10
2023-02-14T17:33:37.499Z,5.10
2023-02-14T17:38:43.496Z,5.00
2023-02-14T17:43:46.958Z,5.00
2023-02-14T17:48:50.203Z,5.00
2023-02-14T17:53:53.036Z,4.80
2023-02-14T17:58:56.402Z,4.70
2023-02-14T18:03:59.373Z,4.60
2023-02-14T18:09:08.459Z,4.60
2023-02-14T18:14:26.020Z,4.50
2023-02-14T18:19:29.655Z,4.50
2023-02-14T18:24:35.838Z,4.60
2023-02-14T18:29:39.420Z,4.70
2023-02-14T18:34:42.496Z,4.60
2023-02-14T18:39:45.844Z,4.50
2023-02-14T18:44:48.954Z,4.30
2023-02-14T18:49:54.706Z,4.10
2023-02-14T18:54:59.452Z,3.90
2023-02-14T19:00:06.932Z,3.70
2023-02-14T19:05:10.882Z,3.50
2023-02-14T19:10:14.015Z,3.30
2023-02-14T19:15:19.144Z,3.30
2023-02-14T19:20:22.396Z,3.20
2023-02-14T19:25:26.642Z,3.20
2023-02-14T19:30:29.890Z,3.10
2023-02-14T19:35:33.020Z,3.00
2023-02-14T19:40:35.847Z,3.00
2023-02-14T19:45:39.040Z,3.00
2023-02-14T19:50:42.038Z,2.90
2023-02-14T19:55:46.306Z,2.90
2023-02-14T20:01:01.989Z,2.80
2023-02-14T20:06:05.441Z,2.70
2023-02-14T20:11:46.624Z,2.60
2023-02-14T20:16:50.990Z,2.40
2023-02-14T20:21:55.389Z,2.30
2023-02-14T20:27:00.611Z,2.10
2023-02-14T20:32:05.026Z,2.00
2023-02-14T20:37:08.093Z,1.90
2023-02-14T20:42:11.324Z,1.90
2023-02-14T20:47:14.237Z,1.80
2023-02-14T20:52:18.809Z,1.70
2023-02-14T20:57:21.643Z,1.60
2023-02-14T21:02:24.820Z,1.50
2023-02-14T21:07:30.824Z,1.40
2023-02-14T21:12:33.662Z,1.30
2023-02-14T21:17:37.410Z,1.20
2023-02-14T21:22:40.921Z,1.10
2023-02-14T21:27:44.005Z,1.00
2023-02-14T21:32:47.010Z,1.00
2023-02-14T21:37:50.067Z,0.90
2023-02-14T21:42:53.077Z,0.90
2023-02-14T21:48:14.242Z,0.90
2023-02-14T21:53:17.276Z,0.90
2023-02-14T21:58:20.100Z,0.90
2023-02-14T22:03:23.401Z,0.90
2023-02-14T22:08:26.401Z,0.90
2023-02-14T22:13:29.196Z,0.90
2023-02-14T22:18:32.806Z,0.80
2023-02-14T22:23:36.619Z,0.80
2023-02-14T22:28:41.083Z,0.70
2023-02-14T22:33:44.953Z,0.60
2023-02-14T22:38:48.013Z,0.50
2023-02-14T22:43:53.134Z,0.40
2023-02-14T22:48:57.644Z,0.40
2023-02-14T22:54:12.411Z,0.30
2023-02-14T22:59:21.484Z,0.20
2023-02-14T23:04:29.489Z,0.20
2023-02-14T23:09:32.408Z,0.20
2023-02-14T23:15:10.988Z,0.20
2023-02-14T23:20:32.351Z,0.20
2023-02-14T23:25:35.233Z,0.20
2023-02-14T23:30:38.135Z,0.10
2023-02-14T23:35:41.146Z,0.00
2023-02-14T23:41:02.651Z,0.00
2023-02-14T23:46:05.760Z,-0.10
2023-02-14T23:51:08.686Z,-0.20
2023-02-14T23:56:11.628Z,-0.20
